createdAt,value
2018-03-11T00:00:51.336Z,15.27
2018-03-11T00:03:18.741Z,16.60
2018-03-11T00:05:46.153Z,16.23
2018-03-11T00:08:13.560Z,16.87
2018-03-11T00:10:40.969Z,16.63
2018-03-11T00:15:46.280Z,17.37
2018-03-11T00:18:13.691Z,15.37
2018-03-11T00:20:41.090Z,15.63
2018-03-11T00:23:08.526Z,16.20
2018-03-11T00:25:35.954Z,15.20
2018-03-11T00:28:03.419Z,16.23
2018-03-11T00:30:31.023Z,17.00
2018-03-11T00:32:58.453Z,15.17
2018-03-11T00:35:25.944Z,17.97
2018-03-11T00:37:53.505Z,16.27
2018-03-11T00:40:21.071Z,16.93
2018-03-11T00:42:48.489Z,16.63
2018-03-11T00:45:15.900Z,17.70
2018-03-11T00:47:43.425Z,16.50
2018-03-11T00:50:10.830Z,17.07
2018-03-11T00:52:38.249Z,17.83
2018-03-11T00:55:05.644Z,17.40
2018-03-11T00:57:33.213Z,16.87
2018-03-11T01:00:00.625Z,16.37
2018-03-11T01:02:28.024Z,16.60
2018-03-11T01:04:55.429Z,17.10
2018-03-11T01:07:22.840Z,17.00
2018-03-11T01:09:50.241Z,17.00
2018-03-11T01:12:17.662Z,17.80
2018-03-11T01:14:45.073Z,17.53
2018-03-11T01:17:12.469Z,17.33
2018-03-11T01:19:39.869Z,17.07
2018-03-11T01:22:07.285Z,16.60
2018-03-11T01:24:34.685Z,16.20
2018-03-11T01:27:02.099Z,17.23
2018-03-11T01:29:29.513Z,20.20
2018-03-11T01:31:57.158Z,20.23
2018-03-11T01:34:24.512Z,18.20
2018-03-11T01:36:51.924Z,21.90
2018-03-11T01:39:19.330Z,21.20
2018-03-11T01:41:46.728Z,18.20
2018-03-11T01:44:14.150Z,19.70
2018-03-11T01:46:41.551Z,19.10
2018-03-11T01:49:08.956Z,19.03
2018-03-11T01:51:36.377Z,19.73
2018-03-11T01:54:03.781Z,18.60
2018-03-11T01:56:31.184Z,18.50
2018-03-11T01:58:58.601Z,19.03
2018-03-11T02:01:26.007Z,20.20
2018-03-11T02:03:53.409Z,18.43
2018-03-11T02:06:20.826Z,18.93
2018-03-11T02:08:48.225Z,20.13
2018-03-11T02:11:15.642Z,19.83
2018-03-11T02:13:43.059Z,19.23
2018-03-11T02:16:10.455Z,19.20
2018-03-11T02:18:37.843Z,19.60
2018-03-11T02:21:05.268Z,19.87
2018-03-11T02:23:32.726Z,21.00
2018-03-11T02:26:00.124Z,20.97
2018-03-11T02:28:27.536Z,20.43
2018-03-11T02:30:54.941Z,20.73
2018-03-11T02:33:22.352Z,21.10
2018-03-11T02:35:49.752Z,20.57
2018-03-11T02:38:17.166Z,21.20
2018-03-11T02:40:44.582Z,22.00
2018-03-11T02:43:11.980Z,23.03
2018-03-11T02:45:39.401Z,23.03
2018-03-11T02:48:06.802Z,21.43
2018-03-11T02:50:34.210Z,22.20
2018-03-11T02:53:01.617Z,20.20
2018-03-11T02:55:29.025Z,22.33
2018-03-11T02:57:56.441Z,21.03
2018-03-11T03:00:23.863Z,21.47
2018-03-11T03:02:51.255Z,22.90
2018-03-11T03:05:18.661Z,21.47
2018-03-11T03:07:46.057Z,21.73
2018-03-11T03:10:13.472Z,20.83
2018-03-11T03:12:40.877Z,21.70
2018-03-11T03:15:08.285Z,21.57
2018-03-11T03:17:35.692Z,20.97
2018-03-11T03:20:03.111Z,20.20
2018-03-11T03:22:30.520Z,20.20
2018-03-11T03:24:57.928Z,23.57
2018-03-11T03:27:25.325Z,21.17
2018-03-11T03:29:52.739Z,21.63
2018-03-11T03:32:20.141Z,23.90
2018-03-11T03:34:47.557Z,21.70
2018-03-11T03:37:14.967Z,22.23
2018-03-11T03:39:42.364Z,21.07
2018-03-11T03:42:09.774Z,22.50
2018-03-11T03:44:37.173Z,22.47
2018-03-11T03:47:04.584Z,22.57
2018-03-11T03:49:31.991Z,22.63
2018-03-11T03:51:59.388Z,21.47
2018-03-11T03:54:26.801Z,22.47
2018-03-11T03:56:54.220Z,24.10
2018-03-11T03:59:21.633Z,24.60
2018-03-11T04:01:49.036Z,22.90
2018-03-11T04:04:16.434Z,25.10
2018-03-11T04:06:43.846Z,22.50
2018-03-11T04:09:11.254Z,22.73
2018-03-11T04:11:38.668Z,22.93
2018-03-11T04:14:06.076Z,21.80
2018-03-11T04:16:33.479Z,23.40
2018-03-11T04:19:00.889Z,23.27
2018-03-11T04:21:28.289Z,22.17
2018-03-11T04:23:55.688Z,20.63
2018-03-11T04:26:23.105Z,22.03
2018-03-11T04:28:50.504Z,22.53
2018-03-11T04:31:17.902Z,23.10
2018-03-11T04:33:45.325Z,23.90
2018-03-11T04:36:12.721Z,21.70
2018-03-11T04:38:40.122Z,22.97
2018-03-11T04:41:07.533Z,21.67
2018-03-11T04:43:34.932Z,23.20
2018-03-11T04:46:02.337Z,22.50
2018-03-11T04:48:29.749Z,22.70
2018-03-11T04:50:57.146Z,21.10
2018-03-11T04:53:24.544Z,22.80
2018-03-11T04:55:51.966Z,23.43
2018-03-11T04:58:19.364Z,21.07
2018-03-11T05:00:46.768Z,21.10
2018-03-11T05:03:14.180Z,21.80
2018-03-11T05:05:41.581Z,21.87
2018-03-11T05:08:08.992Z,21.60
2018-03-11T05:10:36.404Z,22.93
2018-03-11T05:13:03.808Z,21.60
2018-03-11T05:15:31.226Z,22.03
2018-03-11T05:17:58.619Z,21.33
2018-03-11T05:20:26.029Z,22.60
2018-03-11T05:22:53.437Z,22.07
2018-03-11T05:25:20.847Z,22.10
2018-03-11T05:27:48.257Z,22.43
2018-03-11T05:30:15.666Z,24.13
2018-03-11T05:32:43.069Z,24.57
2018-03-11T05:35:10.477Z,24.47
2018-03-11T05:37:37.881Z,24.90
2018-03-11T05:40:05.298Z,24.00
2018-03-11T05:42:32.692Z,25.53
2018-03-11T05:45:00.106Z,24.10
2018-03-11T05:47:27.513Z,23.83
2018-03-11T05:49:54.917Z,24.67
2018-03-11T05:52:22.333Z,23.53
2018-03-11T05:54:49.739Z,23.83
2018-03-11T05:57:17.141Z,25.83
2018-03-11T05:59:44.548Z,24.40
2018-03-11T06:02:11.943Z,25.47
2018-03-11T06:04:39.369Z,25.07
2018-03-11T06:07:06.915Z,25.40
2018-03-11T06:09:34.257Z,25.00
2018-03-11T06:12:01.660Z,27.13
2018-03-11T06:14:29.061Z,26.70
2018-03-11T06:16:56.482Z,23.63
2018-03-11T06:19:23.875Z,25.27
2018-03-11T06:21:51.276Z,24.33
2018-03-11T06:24:18.695Z,24.13
2018-03-11T06:26:46.108Z,25.43
2018-03-11T06:29:13.508Z,24.97
2018-03-11T06:31:40.910Z,23.70
2018-03-11T06:34:08.307Z,24.20
2018-03-11T06:36:35.729Z,22.87
2018-03-11T06:39:03.132Z,23.33
2018-03-11T06:41:30.544Z,23.90
2018-03-11T06:43:57.945Z,22.80
2018-03-11T06:46:25.345Z,25.00
2018-03-11T06:48:52.756Z,22.80
2018-03-11T06:51:20.161Z,23.40
2018-03-11T06:53:47.565Z,23.30
2018-03-11T06:56:14.974Z,24.87
2018-03-11T06:58:42.395Z,25.20
2018-03-11T07:01:09.807Z,24.10
2018-03-11T07:03:37.205Z,23.23
2018-03-11T07:06:04.623Z,24.93
2018-03-11T07:08:32.013Z,24.57
2018-03-11T07:10:59.412Z,24.87
2018-03-11T07:13:26.824Z,22.70
2018-03-11T07:15:54.228Z,22.50
2018-03-11T07:18:21.649Z,22.30
2018-03-11T07:20:49.040Z,27.03
2018-03-11T07:23:16.440Z,25.60
2018-03-11T07:25:43.852Z,21.57
2018-03-11T07:28:11.270Z,22.30
2018-03-11T07:30:38.686Z,21.30
2018-03-11T07:33:06.094Z,21.60
2018-03-11T07:35:33.497Z,22.30
2018-03-11T07:38:00.910Z,23.57
2018-03-11T07:40:28.320Z,24.33
2018-03-11T07:42:55.737Z,23.30
2018-03-11T07:45:23.144Z,23.00
2018-03-11T07:47:50.552Z,24.60
2018-03-11T07:50:17.960Z,24.30
2018-03-11T07:52:45.356Z,22.63
2018-03-11T07:55:12.786Z,23.03
2018-03-11T07:57:40.188Z,23.70
2018-03-11T08:00:07.601Z,24.13
2018-03-11T08:02:35.026Z,22.40
2018-03-11T08:05:02.462Z,20.87
2018-03-11T08:07:29.885Z,21.47
2018-03-11T08:09:57.288Z,20.00
2018-03-11T08:12:24.697Z,20.60
2018-03-11T08:14:52.117Z,18.90
2018-03-11T08:17:19.516Z,19.53
2018-03-11T08:19:46.929Z,15.97
2018-03-11T08:22:14.329Z,16.23
2018-03-11T08:24:41.738Z,18.03
2018-03-11T08:27:09.157Z,16.43
2018-03-11T08:29:36.572Z,15.40
2018-03-11T08:32:03.997Z,15.13
2018-03-11T08:34:31.405Z,14.40
2018-03-11T08:36:58.812Z,14.97
2018-03-11T08:39:26.221Z,14.50
2018-03-11T08:41:53.633Z,13.43
2018-03-11T08:44:21.049Z,12.17
2018-03-11T08:46:48.448Z,15.10
2018-03-11T08:49:15.853Z,13.83
2018-03-11T08:51:43.266Z,13.77
2018-03-11T08:54:10.666Z,13.17
2018-03-11T08:56:38.092Z,13.70
2018-03-11T08:59:05.496Z,13.50
2018-03-11T09:01:32.912Z,12.13
2018-03-11T09:04:00.328Z,13.50
2018-03-11T09:06:27.736Z,11.63
2018-03-11T09:08:55.161Z,11.63
2018-03-11T09:11:22.565Z,11.80
2018-03-11T09:13:49.974Z,11.40
2018-03-11T09:16:17.388Z,9.50
2018-03-11T09:18:44.788Z,9.77
2018-03-11T09:21:12.205Z,9.53
2018-03-11T09:23:39.609Z,8.70
2018-03-11T09:26:07.005Z,9.07
2018-03-11T09:28:34.417Z,7.60
2018-03-11T09:31:01.817Z,7.93
2018-03-11T09:33:29.240Z,11.30
2018-03-11T09:35:56.647Z,12.20
2018-03-11T09:38:24.049Z,11.27
2018-03-11T09:40:51.457Z,12.13
2018-03-11T09:43:18.861Z,11.93
2018-03-11T09:45:46.294Z,10.77
2018-03-11T09:48:13.697Z,12.20
2018-03-11T09:50:41.106Z,11.43
2018-03-11T09:53:08.525Z,11.30
2018-03-11T09:55:35.930Z,11.23
2018-03-11T09:58:03.349Z,11.83
2018-03-11T10:00:30.758Z,11.10
2018-03-11T10:02:58.156Z,12.80
2018-03-11T10:05:25.581Z,13.87
2018-03-11T10:07:52.989Z,14.30
2018-03-11T10:10:20.404Z,13.57
2018-03-11T10:12:47.804Z,13.70
2018-03-11T10:15:15.216Z,13.30
2018-03-11T10:17:42.629Z,13.80
2018-03-11T10:20:10.034Z,13.73
2018-03-11T10:22:37.458Z,12.57
2018-03-11T10:25:04.865Z,13.33
2018-03-11T10:27:32.269Z,13.00
2018-03-11T10:29:59.686Z,13.40
2018-03-11T10:32:27.094Z,12.07
2018-03-11T10:34:54.513Z,10.70
2018-03-11T10:37:21.917Z,11.63
2018-03-11T10:39:49.321Z,10.73
2018-03-11T10:42:16.732Z,11.37
2018-03-11T10:44:44.142Z,10.20
2018-03-11T10:47:11.570Z,7.50
2018-03-11T10:49:38.973Z,7.20
2018-03-11T10:52:06.365Z,6.10
2018-03-11T10:54:33.822Z,6.13
2018-03-11T10:57:01.169Z,5.47
2018-03-11T10:59:28.636Z,6.20
2018-03-11T11:05:02.797Z,5.63
2018-03-11T11:07:30.188Z,6.23
2018-03-11T11:09:57.582Z,6.37
2018-03-11T11:12:24.993Z,6.27
2018-03-11T11:14:52.393Z,5.60
2018-03-11T11:17:19.823Z,5.90
2018-03-11T11:19:47.216Z,10.10
2018-03-11T11:22:14.618Z,11.50
2018-03-11T11:24:42.034Z,13.50
2018-03-11T11:27:09.440Z,12.50
2018-03-11T11:29:36.869Z,12.37
2018-03-11T11:32:04.325Z,11.97
2018-03-11T11:34:37.905Z,11.37
2018-03-11T11:37:05.313Z,13.10
2018-03-11T11:39:32.716Z,13.23
2018-03-11T11:42:00.137Z,11.93
2018-03-11T11:44:27.542Z,14.37
2018-03-11T11:46:54.966Z,12.07
2018-03-11T11:49:22.374Z,11.80
2018-03-11T11:51:49.782Z,12.37
2018-03-11T11:54:17.218Z,12.00
2018-03-11T11:56:44.637Z,12.23
2018-03-11T11:59:12.061Z,12.50
2018-03-11T12:01:39.465Z,13.63
2018-03-11T12:04:06.868Z,13.27
2018-03-11T12:06:34.286Z,12.33
2018-03-11T12:09:01.712Z,13.80
2018-03-11T12:11:29.132Z,13.23
2018-03-11T12:13:56.536Z,12.77
2018-03-11T12:16:23.950Z,12.70
2018-03-11T12:18:51.372Z,12.23
2018-03-11T12:21:18.775Z,12.07
2018-03-11T12:23:46.190Z,11.60
2018-03-11T12:26:13.632Z,10.80
2018-03-11T12:28:41.041Z,11.70
2018-03-11T12:31:08.464Z,11.10
2018-03-11T12:33:35.875Z,11.03
2018-03-11T12:36:03.292Z,10.47
2018-03-11T12:38:30.694Z,9.87
2018-03-11T12:40:58.135Z,10.13
2018-03-11T12:43:25.508Z,8.43
2018-03-11T12:45:52.956Z,8.73
2018-03-11T12:48:20.367Z,9.23
2018-03-11T12:50:47.765Z,9.13
2018-03-11T12:53:15.160Z,8.73
2018-03-11T12:55:42.582Z,9.10
2018-03-11T12:58:09.972Z,9.13
2018-03-11T13:00:37.394Z,9.07
2018-03-11T13:03:04.789Z,8.10
2018-03-11T13:05:32.192Z,9.20
2018-03-11T13:08:00.087Z,9.30
2018-03-11T13:10:27.476Z,7.77
2018-03-11T13:12:54.885Z,9.17
2018-03-11T13:15:22.277Z,7.83
2018-03-11T13:17:49.673Z,8.00
2018-03-11T13:20:28.771Z,7.83
2018-03-11T13:22:56.172Z,7.77
2018-03-11T13:25:23.601Z,8.50
2018-03-11T13:28:02.765Z,7.47
2018-03-11T13:30:30.184Z,7.77
2018-03-11T13:33:09.318Z,7.77
2018-03-11T13:35:36.755Z,7.50
2018-03-11T13:38:15.949Z,7.43
2018-03-11T13:40:43.377Z,7.43
2018-03-11T13:43:10.783Z,7.70
2018-03-11T13:45:49.829Z,8.00
2018-03-11T13:48:17.237Z,8.17
2018-03-11T13:50:44.660Z,8.37
2018-03-11T13:53:23.766Z,7.13
2018-03-11T13:55:51.155Z,7.07
2018-03-11T13:58:30.380Z,7.80
2018-03-11T14:00:57.773Z,7.97
2018-03-11T14:03:25.182Z,7.97
2018-03-11T14:05:52.590Z,8.70
2018-03-11T14:08:19.981Z,8.13
2018-03-11T14:10:47.405Z,10.33
2018-03-11T14:13:14.809Z,9.73
2018-03-11T14:15:42.217Z,8.20
2018-03-11T14:18:09.639Z,9.10
2018-03-11T14:20:37.033Z,9.67
2018-03-11T14:23:04.457Z,9.03
2018-03-11T14:25:31.861Z,9.23
2018-03-11T14:27:59.260Z,8.93
2018-03-11T14:30:26.682Z,8.47
2018-03-11T14:32:54.080Z,9.00
2018-03-11T14:35:21.508Z,8.20
2018-03-11T14:37:48.917Z,7.97
2018-03-11T14:40:16.318Z,8.50
2018-03-11T14:42:43.728Z,8.50
2018-03-11T14:45:11.140Z,8.70
2018-03-11T14:47:38.562Z,9.30
2018-03-11T14:50:06.002Z,8.53
2018-03-11T14:52:33.404Z,9.47
2018-03-11T14:55:00.808Z,8.50
2018-03-11T14:57:28.212Z,9.40
2018-03-11T14:59:55.647Z,9.30
2018-03-11T15:02:23.040Z,7.90
2018-03-11T15:04:50.428Z,9.17
2018-03-11T15:07:17.845Z,9.10
2018-03-11T15:09:45.255Z,8.73
2018-03-11T15:12:12.667Z,8.13
2018-03-11T15:14:40.062Z,8.17
2018-03-11T15:17:07.560Z,8.10
2018-03-11T15:19:34.960Z,8.40
2018-03-11T15:22:02.372Z,8.30
2018-03-11T15:24:29.780Z,8.90
2018-03-11T15:26:57.180Z,9.20
2018-03-11T15:29:24.589Z,9.77
2018-03-11T15:31:52.014Z,10.40
2018-03-11T15:34:19.419Z,8.77
2018-03-11T15:36:46.824Z,8.50
2018-03-11T15:39:14.234Z,9.23
2018-03-11T15:41:41.628Z,9.50
2018-03-11T15:44:09.041Z,9.27
2018-03-11T15:46:36.449Z,11.30
2018-03-11T15:49:03.874Z,10.73
2018-03-11T15:51:31.294Z,10.63
2018-03-11T15:53:58.701Z,10.83
2018-03-11T15:56:26.109Z,9.43
2018-03-11T15:58:53.504Z,8.80
2018-03-11T16:01:20.926Z,7.60
2018-03-11T16:03:48.320Z,8.90
2018-03-11T16:06:15.726Z,9.90
2018-03-11T16:08:43.145Z,9.60
2018-03-11T16:11:10.549Z,10.40
2018-03-11T16:13:37.973Z,9.80
2018-03-11T16:16:05.377Z,9.97
2018-03-11T16:18:32.785Z,11.13
2018-03-11T16:21:00.213Z,10.80
2018-03-11T16:23:27.615Z,10.83
2018-03-11T16:25:55.055Z,9.97
2018-03-11T16:28:22.461Z,17.40
2018-03-11T16:30:49.878Z,22.67
2018-03-11T16:33:17.296Z,21.90
2018-03-11T16:35:44.708Z,23.10
2018-03-11T16:38:12.133Z,18.10
2018-03-11T16:40:39.550Z,20.27
2018-03-11T16:43:06.961Z,20.97
2018-03-11T16:45:34.385Z,17.87
2018-03-11T16:48:01.793Z,14.03
2018-03-11T16:50:29.213Z,12.23
2018-03-11T16:52:56.621Z,14.53
2018-03-11T16:55:24.033Z,14.40
2018-03-11T16:57:51.441Z,11.30
2018-03-11T17:00:18.850Z,11.37
2018-03-11T17:02:46.264Z,10.90
2018-03-11T17:05:13.674Z,9.70
2018-03-11T17:07:41.085Z,10.10
2018-03-11T17:10:08.495Z,10.00
2018-03-11T17:12:35.950Z,9.67
2018-03-11T17:15:03.357Z,9.67
2018-03-11T17:17:30.757Z,9.73
2018-03-11T17:19:58.175Z,9.90
2018-03-11T17:22:25.586Z,9.80
2018-03-11T17:24:53.018Z,13.30
2018-03-11T17:27:20.456Z,12.77
2018-03-11T17:29:47.863Z,11.33
2018-03-11T17:32:15.270Z,11.27
2018-03-11T17:34:42.694Z,10.77
2018-03-11T17:37:10.101Z,10.30
2018-03-11T17:39:37.553Z,12.00
2018-03-11T17:42:04.967Z,11.20
2018-03-11T17:44:32.366Z,11.20
2018-03-11T17:46:59.804Z,11.70
2018-03-11T17:49:27.209Z,12.77
2018-03-11T17:51:54.640Z,15.47
2018-03-11T17:54:22.043Z,23.30
2018-03-11T17:56:49.452Z,25.23
2018-03-11T17:59:16.877Z,23.63
2018-03-11T18:01:44.286Z,22.50
2018-03-11T18:04:11.705Z,20.00
2018-03-11T18:06:39.113Z,21.90
2018-03-11T18:09:06.522Z,17.53
2018-03-11T18:11:33.959Z,19.10
2018-03-11T18:14:01.369Z,16.67
2018-03-11T18:16:28.797Z,15.70
2018-03-11T18:18:56.208Z,16.77
2018-03-11T18:21:23.679Z,16.23
2018-03-11T18:23:51.118Z,16.97
2018-03-11T18:26:18.931Z,17.10
2018-03-11T18:28:46.402Z,16.40
2018-03-11T18:31:13.804Z,16.67
2018-03-11T18:33:41.252Z,17.83
2018-03-11T18:36:09.063Z,17.50
2018-03-11T18:38:36.787Z,17.93
2018-03-11T18:41:04.747Z,17.77
2018-03-11T18:43:32.354Z,17.50
2018-03-11T18:45:59.841Z,17.50
2018-03-11T18:48:27.279Z,17.87
2018-03-11T18:50:54.838Z,17.17
2018-03-11T18:53:22.301Z,18.40
2018-03-11T18:55:49.743Z,19.03
2018-03-11T18:58:17.229Z,18.47
2018-03-11T19:00:44.655Z,17.37
2018-03-11T19:03:12.057Z,17.83
2018-03-11T19:05:39.481Z,18.47
2018-03-11T19:08:06.904Z,18.00
2018-03-11T19:10:34.317Z,17.40
2018-03-11T19:13:01.847Z,14.90
2018-03-11T19:15:29.298Z,15.77
2018-03-11T19:17:56.941Z,15.93
2018-03-11T19:20:24.373Z,15.87
2018-03-11T19:22:51.782Z,16.93
2018-03-11T19:25:19.276Z,16.40
2018-03-11T19:27:46.692Z,16.73
2018-03-11T19:30:14.300Z,17.57
2018-03-11T19:32:41.812Z,17.43
2018-03-11T19:35:09.458Z,15.07
2018-03-11T19:37:37.426Z,16.73
2018-03-11T19:40:05.438Z,17.33
2018-03-11T19:42:33.821Z,15.53
2018-03-11T19:45:02.143Z,16.43
2018-03-11T19:47:30.416Z,16.70
2018-03-11T19:49:58.762Z,15.53
2018-03-11T19:52:27.028Z,15.90
2018-03-11T19:54:55.463Z,17.93
2018-03-11T19:57:23.585Z,14.00
2018-03-11T19:59:51.750Z,16.30
2018-03-11T20:02:20.172Z,16.10
2018-03-11T20:04:48.479Z,16.33
2018-03-11T20:07:16.836Z,17.27
2018-03-11T20:09:45.114Z,17.43
2018-03-11T20:12:13.357Z,18.73
2018-03-11T20:14:41.734Z,18.53
2018-03-11T20:17:10.021Z,19.07
2018-03-11T20:19:38.309Z,18.57
2018-03-11T20:22:07.174Z,16.57
2018-03-11T20:24:35.483Z,16.23
2018-03-11T20:27:03.902Z,18.07
2018-03-11T20:29:32.204Z,17.97
2018-03-11T20:32:00.531Z,20.10
2018-03-11T20:34:28.773Z,19.90
2018-03-11T20:36:57.045Z,20.40
2018-03-11T20:39:25.356Z,18.70
2018-03-11T20:41:53.557Z,17.60
2018-03-11T20:44:21.579Z,18.27
2018-03-11T20:46:49.478Z,18.57
2018-03-11T20:49:17.450Z,19.30
2018-03-11T20:51:46.123Z,19.60
2018-03-11T20:54:13.906Z,18.80
2018-03-11T20:56:41.431Z,18.60
2018-03-11T20:59:08.945Z,17.90
2018-03-11T21:01:36.531Z,18.93
2018-03-11T21:04:04.091Z,21.27
2018-03-11T21:06:31.596Z,20.80
2018-03-11T21:08:59.024Z,22.60
2018-03-11T21:11:27.224Z,21.80
2018-03-11T21:13:54.651Z,23.83
2018-03-11T21:16:22.080Z,25.53
2018-03-11T21:18:49.484Z,23.27
2018-03-11T21:21:16.912Z,26.50
2018-03-11T21:23:44.334Z,26.63
2018-03-11T21:26:11.738Z,27.30
2018-03-11T21:28:39.173Z,27.50
2018-03-11T21:31:06.637Z,28.77
2018-03-11T21:33:34.058Z,28.20
2018-03-11T21:36:01.474Z,27.57
2018-03-11T21:38:28.891Z,28.30
2018-03-11T21:40:56.305Z,29.00
2018-03-11T21:43:23.756Z,27.77
2018-03-11T21:45:51.193Z,27.80
2018-03-11T21:48:18.613Z,26.77
2018-03-11T21:50:46.049Z,27.83
2018-03-11T21:53:13.457Z,27.53
2018-03-11T21:55:40.865Z,28.90
2018-03-11T21:58:08.301Z,29.20
2018-03-11T22:00:35.743Z,28.00
2018-03-11T22:03:03.165Z,29.30
2018-03-11T22:05:30.568Z,30.07
2018-03-11T22:07:58.007Z,30.67
2018-03-11T22:10:25.425Z,30.23
2018-03-11T22:12:52.833Z,27.97
2018-03-11T22:15:20.262Z,32.43
2018-03-11T22:17:47.673Z,27.13
2018-03-11T22:20:15.114Z,30.87
2018-03-11T22:22:42.529Z,30.77
2018-03-11T22:25:09.941Z,29.73
2018-03-11T22:27:37.360Z,28.53
2018-03-11T22:30:04.802Z,29.87
2018-03-11T22:32:32.213Z,28.90
2018-03-11T22:34:59.638Z,29.63
2018-03-11T22:37:27.045Z,30.10
2018-03-11T22:39:54.494Z,29.70
2018-03-11T22:42:21.904Z,30.10
2018-03-11T22:44:49.353Z,28.63
2018-03-11T22:47:16.782Z,29.37
2018-03-11T22:49:44.189Z,27.27
2018-03-11T22:52:11.647Z,27.73
2018-03-11T22:54:39.055Z,27.33
2018-03-11T22:57:06.499Z,28.10
2018-03-11T22:59:33.921Z,26.30
2018-03-11T23:02:01.329Z,27.77
2018-03-11T23:04:28.756Z,26.70
2018-03-11T23:06:56.165Z,25.80
2018-03-11T23:09:23.660Z,26.97
2018-03-11T23:11:51.067Z,26.73
2018-03-11T23:14:18.506Z,28.17
2018-03-11T23:16:45.929Z,29.73
2018-03-11T23:19:22.164Z,30.80
2018-03-11T23:21:49.554Z,28.83
2018-03-11T23:24:16.969Z,30.40
2018-03-11T23:26:44.373Z,29.10
2018-03-11T23:29:11.790Z,30.47
2018-03-11T23:31:39.209Z,31.47
2018-03-11T23:34:06.633Z,30.60
2018-03-11T23:36:34.059Z,31.53
2018-03-11T23:39:01.504Z,32.10
2018-03-11T23:41:28.927Z,29.47
2018-03-11T23:43:56.339Z,32.03
2018-03-11T23:46:23.757Z,33.17
2018-03-11T23:48:51.190Z,31.20
2018-03-11T23:51:18.600Z,31.00
2018-03-11T23:53:46.849Z,30.93
2018-03-11T23:56:14.263Z,31.90
2018-03-11T23:58:41.684Z,31.53
